KCFD/CFD METAR and TAF weather

Enter ICAO airport designator
Station Type Date Time Source
KCFD METAR 2019/05/27 09:35 UTC NOAA

KCFD 270935Z AUTO 16004KT 10SM OVC012 23/23 A2996 RMK AO2 T02270227


Station Type Date Time Source
KCFD Decoded METAR 2019/05/27 09:35 UTC NOAA

Station name not available
May 27, 2019 - 05:35 AM EDT / 2019.05.27 0935 UTC
Wind: from the SSE (160 degrees) at 5 MPH (4 KT):0
Visibility: 10 mile(s):0
Sky conditions: overcast
Temperature: 72.9 F (22.7 C)
Dew Point: 72.9 F (22.7 C)
Relative Humidity: 100%
Pressure (altimeter): 29.96 in. Hg (1014 hPa)
ob: KCFD 270935Z AUTO 16004KT 10SM OVC012 23/23 A2996 RMK AO2 T02270227
cycle: 9

Station Type Date Time Source
KCFD TAF UTC NOAA

Error!

Example: see airport list